createdAt,value
2016-11-28T00:01:07.489Z,1011.61
2016-11-28T00:02:21.224Z,1011.61
2016-11-28T00:03:35.771Z,1011.71
2016-11-28T00:04:49.629Z,1011.64
2016-11-28T00:06:04.012Z,1011.64
2016-11-28T00:07:18.012Z,1011.65
2016-11-28T00:08:32.060Z,1011.63
2016-11-28T00:09:46.195Z,1011.73
2016-11-28T00:11:00.359Z,1011.74
2016-11-28T00:12:15.391Z,1011.78
2016-11-28T00:13:30.154Z,1011.9
2016-11-28T00:14:44.849Z,1011.62
2016-11-28T00:15:59.144Z,1011.75
2016-11-28T00:17:13.236Z,1011.78
2016-11-28T00:20:11.300Z,1011.84
2016-11-28T00:21:25.631Z,1011.79
2016-11-28T00:22:40.062Z,1011.84
2016-11-28T00:23:54.143Z,1011.84
2016-11-28T00:25:08.858Z,1011.93
2016-11-28T00:27:51.825Z,1011.86
2016-11-28T00:29:06.381Z,1011.79
2016-11-28T00:30:20.873Z,1011.88
2016-11-28T00:31:34.959Z,1011.87
2016-11-28T00:32:49.534Z,1011.77
2016-11-28T00:34:03.383Z,1011.83
2016-11-28T00:35:17.765Z,1011.89
2016-11-28T00:36:32.542Z,1011.86
2016-11-28T00:37:46.730Z,1011.85
2016-11-28T00:39:01.033Z,1011.85
2016-11-28T00:40:15.571Z,1011.81
2016-11-28T00:41:29.533Z,1011.91
2016-11-28T00:42:43.844Z,1011.97
2016-11-28T00:43:57.734Z,1011.89
2016-11-28T00:45:12.039Z,1011.93
2016-11-28T00:46:28.592Z,1011.87
2016-11-28T00:47:42.869Z,1011.92
2016-11-28T00:48:57.383Z,1011.91
2016-11-28T00:50:11.467Z,1011.99
2016-11-28T00:51:25.759Z,1011.88
2016-11-28T00:52:40.144Z,1011.94
2016-11-28T00:53:54.178Z,1011.84
2016-11-28T00:55:09.257Z,1011.94
2016-11-28T00:58:36.226Z,1011.94
2016-11-28T00:59:50.421Z,1012.01
2016-11-28T01:01:05.256Z,1011.95
2016-11-28T01:02:19.055Z,1012.01
2016-11-28T01:03:33.778Z,1011.93
2016-11-28T01:04:47.841Z,1011.94
2016-11-28T01:06:02.284Z,1012.02
2016-11-28T01:07:16.981Z,1012.02
2016-11-28T01:08:30.815Z,1012.07
2016-11-28T01:09:45.023Z,1011.99
2016-11-28T01:10:59.230Z,1012.04
2016-11-28T01:12:15.184Z,1011.98
2016-11-28T01:13:29.397Z,1011.97
2016-11-28T01:14:44.890Z,1012.03
2016-11-28T01:16:00.111Z,1011.99
2016-11-28T01:17:19.218Z,1012.03
2016-11-28T01:18:38.479Z,1011.99
2016-11-28T01:19:54.848Z,1012.07
2016-11-28T01:21:09.125Z,1012.08
2016-11-28T01:22:23.045Z,1012.11
2016-11-28T01:23:37.402Z,1012.1
2016-11-28T01:24:51.607Z,1012.19
2016-11-28T01:26:20.884Z,1012.14
2016-11-28T01:27:34.824Z,1012.15
2016-11-28T01:28:48.916Z,1012.2
2016-11-28T01:30:02.971Z,1012.13
2016-11-28T01:31:17.140Z,1012.12
2016-11-28T01:32:32.547Z,1012.17
2016-11-28T01:35:15.603Z,1012.15
2016-11-28T01:37:59.023Z,1012.12
2016-11-28T01:39:13.406Z,1012.16
2016-11-28T01:40:27.376Z,1012.2
2016-11-28T01:41:41.085Z,1012.21
2016-11-28T01:42:55.456Z,1012.2
2016-11-28T01:44:09.853Z,1012.21
2016-11-28T01:45:24.318Z,1012.16
2016-11-28T01:46:38.649Z,1012.22
2016-11-28T01:47:52.619Z,1012.22
2016-11-28T01:49:06.544Z,1012.21
2016-11-28T01:50:36.624Z,1012.21
2016-11-28T01:51:51.114Z,1012.28
2016-11-28T01:53:05.316Z,1012.21
2016-11-28T01:54:19.287Z,1012.17
2016-11-28T01:55:33.099Z,1012.28
2016-11-28T01:56:47.470Z,1012.25
2016-11-28T01:58:02.049Z,1012.28
2016-11-28T01:59:17.108Z,1012.25
2016-11-28T02:00:31.076Z,1012.26
2016-11-28T02:01:44.977Z,1012.2
2016-11-28T02:02:59.998Z,1012.2
2016-11-28T02:04:14.102Z,1012.25
2016-11-28T02:05:30.572Z,1012.27
2016-11-28T02:06:44.701Z,1012.29
2016-11-28T02:08:13.635Z,1012.34
2016-11-28T02:09:28.342Z,1012.23
2016-11-28T02:10:43.077Z,1012.22
2016-11-28T02:11:57.595Z,1012.27
2016-11-28T02:13:11.383Z,1012.24
2016-11-28T02:14:25.397Z,1012.3
2016-11-28T02:15:39.964Z,1012.3
2016-11-28T02:16:54.135Z,1012.3
2016-11-28T02:18:08.207Z,1012.32
2016-11-28T02:19:22.261Z,1012.33
2016-11-28T02:20:36.134Z,1012.29
2016-11-28T02:21:50.661Z,1012.27
2016-11-28T02:23:04.424Z,1012.35
2016-11-28T02:24:18.573Z,1012.29
2016-11-28T02:25:33.006Z,1012.31
2016-11-28T02:26:46.754Z,1012.37
2016-11-28T02:28:01.230Z,1012.27
2016-11-28T02:29:14.974Z,1012.39
2016-11-28T02:30:29.015Z,1012.34
2016-11-28T02:31:43.275Z,1012.34
2016-11-28T02:32:57.727Z,1012.42
2016-11-28T02:34:12.202Z,1012.4
2016-11-28T02:35:26.748Z,1012.34
2016-11-28T02:36:41.382Z,1012.33
2016-11-28T02:38:17.949Z,1012.36
2016-11-28T02:39:32.705Z,1012.39
2016-11-28T02:40:46.971Z,1012.34
2016-11-28T02:42:01.259Z,1012.36
2016-11-28T02:43:15.167Z,1012.41
2016-11-28T02:44:29.243Z,1012.45
2016-11-28T02:45:43.863Z,1012.38
2016-11-28T02:46:57.815Z,1012.47
2016-11-28T02:48:11.871Z,1012.44
2016-11-28T02:49:25.943Z,1012.45
2016-11-28T02:50:40.241Z,1012.5
2016-11-28T02:51:55.231Z,1012.48
2016-11-28T02:53:09.135Z,1012.45
2016-11-28T02:54:23.470Z,1012.45
2016-11-28T02:55:37.557Z,1012.43
2016-11-28T02:56:51.734Z,1012.44
2016-11-28T02:58:06.600Z,1012.47
2016-11-28T02:59:20.475Z,1012.51
2016-11-28T03:00:34.897Z,1012.54
2016-11-28T03:01:48.923Z,1012.52
2016-11-28T03:03:03.006Z,1012.54
2016-11-28T03:04:18.262Z,1012.56
2016-11-28T03:05:32.109Z,1012.53
2016-11-28T03:06:46.071Z,1012.57
2016-11-28T03:07:59.825Z,1012.56
2016-11-28T03:09:13.956Z,1012.55
2016-11-28T03:10:28.432Z,1012.58
2016-11-28T03:11:42.604Z,1012.58
2016-11-28T03:12:56.562Z,1012.58
2016-11-28T03:14:10.490Z,1012.56
2016-11-28T03:15:39.487Z,1012.58
2016-11-28T03:16:54.048Z,1012.58
2016-11-28T03:18:07.798Z,1012.58
2016-11-28T08:52:53.609Z,1016.27
2016-11-28T08:54:07.778Z,1016.33
2016-11-28T08:55:21.900Z,1016.36
2016-11-28T08:56:35.714Z,1016.37
2016-11-28T08:57:50.416Z,1016.47
2016-11-28T08:59:04.612Z,1016.38
2016-11-28T09:00:19.569Z,1016.44
2016-11-28T09:01:33.904Z,1016.39
2016-11-28T09:02:48.499Z,1016.46
2016-11-28T09:04:02.996Z,1016.42
2016-11-28T09:05:17.440Z,1016.44
2016-11-28T09:06:31.547Z,1016.47
2016-11-28T09:07:46.400Z,1016.55
2016-11-28T09:09:00.320Z,1016.59
2016-11-28T09:10:15.141Z,1016.47
2016-11-28T09:11:28.831Z,1016.45
2016-11-28T09:12:42.751Z,1016.59
2016-11-28T09:13:57.110Z,1016.55
2016-11-28T09:15:11.283Z,1016.59
2016-11-28T09:16:25.445Z,1016.59
2016-11-28T09:17:39.346Z,1016.58
2016-11-28T09:18:53.684Z,1016.56
2016-11-28T09:20:08.227Z,1016.53
2016-11-28T09:21:22.684Z,1016.69
2016-11-28T09:22:37.630Z,1016.69
2016-11-28T09:23:52.091Z,1016.71
2016-11-28T09:25:21.144Z,1016.71
2016-11-28T09:26:35.967Z,1016.79
2016-11-28T09:27:50.528Z,1016.9
2016-11-28T09:29:04.923Z,1016.83
2016-11-28T09:30:18.793Z,1016.8
2016-11-28T09:31:32.639Z,1016.83
2016-11-28T09:32:46.378Z,1016.84
2016-11-28T09:34:01.292Z,1016.85
2016-11-28T09:35:15.531Z,1016.89
2016-11-28T09:36:29.660Z,1016.99
2016-11-28T09:37:45.666Z,1016.87
2016-11-28T09:38:59.594Z,1016.9
2016-11-28T09:40:14.320Z,1016.92
2016-11-28T09:41:28.114Z,1016.97
2016-11-28T09:42:41.985Z,1016.96
2016-11-28T09:43:56.100Z,1016.95
2016-11-28T09:45:10.572Z,1016.91
2016-11-28T09:46:24.822Z,1016.91
2016-11-28T09:47:39.307Z,1016.95
2016-11-28T09:48:53.988Z,1016.92
2016-11-28T09:50:08.359Z,1016.97
2016-11-28T09:51:23.681Z,1017.01
2016-11-28T09:52:38.478Z,1016.96
2016-11-28T09:53:53.090Z,1017.01
2016-11-28T09:55:07.849Z,1017.04
2016-11-28T09:56:21.758Z,1016.98
2016-11-28T09:57:35.961Z,1017.14
2016-11-28T09:58:50.623Z,1017.08
2016-11-28T10:00:04.931Z,1017
2016-11-28T10:01:18.735Z,1017.06
2016-11-28T10:02:32.589Z,1017.01
2016-11-28T10:03:46.417Z,1017
2016-11-28T10:05:01.230Z,1016.92
2016-11-28T10:06:15.988Z,1016.92
2016-11-28T10:07:30.816Z,1016.97
2016-11-28T10:08:45.510Z,1016.95
2016-11-28T10:10:00.217Z,1016.99
2016-11-28T10:11:15.285Z,1016.92
2016-11-28T10:12:29.009Z,1016.98
2016-11-28T10:13:42.877Z,1016.91
2016-11-28T10:14:56.555Z,1016.96
2016-11-28T10:16:10.588Z,1016.98
2016-11-28T10:17:24.676Z,1016.94
2016-11-28T10:18:39.143Z,1016.92
2016-11-28T10:21:22.169Z,1016.99
2016-11-28T10:22:36.264Z,1016.95
2016-11-28T10:23:50.033Z,1016.95
2016-11-28T10:25:19.320Z,1016.99
2016-11-28T10:26:33.681Z,1017.01
2016-11-28T10:27:47.729Z,1016.95
2016-11-28T10:29:01.478Z,1016.93
2016-11-28T10:30:15.445Z,1016.89
2016-11-28T10:31:29.161Z,1016.95
2016-11-28T10:34:14.135Z,1017.02
2016-11-28T10:35:28.027Z,1016.99
2016-11-28T10:36:42.288Z,1017
2016-11-28T10:37:56.192Z,1017
2016-11-28T10:39:10.069Z,1016.93
2016-11-28T10:40:24.909Z,1016.86
2016-11-28T10:41:38.571Z,1016.87
2016-11-28T10:42:52.524Z,1016.89
2016-11-28T10:44:06.649Z,1016.89
2016-11-28T10:45:20.884Z,1016.87
2016-11-28T10:46:35.599Z,1016.86
2016-11-28T10:47:49.951Z,1016.78
2016-11-28T10:49:03.694Z,1016.87
2016-11-28T10:50:17.709Z,1016.96
2016-11-28T10:51:31.489Z,1016.98
2016-11-28T10:52:46.037Z,1016.91
2016-11-28T10:54:00.155Z,1016.96
2016-11-28T10:55:16.135Z,1016.89
2016-11-28T10:56:30.752Z,1016.88
2016-11-28T10:57:44.464Z,1017.02
2016-11-28T10:58:59.007Z,1016.89
2016-11-28T11:00:13.148Z,1016.82
2016-11-28T11:01:28.336Z,1016.94
2016-11-28T11:02:42.578Z,1017.01
2016-11-28T11:04:14.628Z,1016.85
2016-11-28T11:05:29.012Z,1016.99
2016-11-28T11:06:43.529Z,1016.99
2016-11-28T11:07:57.954Z,1016.89
2016-11-28T11:09:11.692Z,1016.97
2016-11-28T11:10:25.472Z,1016.84
2016-11-28T11:11:39.971Z,1016.95
2016-11-28T11:12:53.641Z,1016.84
2016-11-28T11:14:08.584Z,1016.84
2016-11-28T11:15:23.002Z,1016.86
2016-11-28T11:16:37.606Z,1016.87
2016-11-28T11:17:51.939Z,1016.91
2016-11-28T11:19:05.912Z,1016.93
2016-11-28T11:20:19.591Z,1016.83
2016-11-28T11:21:33.928Z,1016.89
2016-11-28T11:22:47.935Z,1017
2016-11-28T11:24:02.246Z,1017.05
2016-11-28T11:25:16.406Z,1017.11
2016-11-28T11:26:30.842Z,1017.07
2016-11-28T11:27:45.123Z,1017.02
2016-11-28T11:28:58.915Z,1017.08
2016-11-28T11:30:13.395Z,1017.04
2016-11-28T11:31:27.773Z,1017.07
2016-11-28T11:32:41.991Z,1017.11
2016-11-28T11:33:56.064Z,1017.17
2016-11-28T11:35:10.419Z,1017.17
2016-11-28T11:36:39.292Z,1017.1
2016-11-28T11:37:53.812Z,1017.15
2016-11-28T11:39:07.480Z,1017.08
2016-11-28T11:40:21.192Z,1017.09
2016-11-28T11:41:35.285Z,1017.28
2016-11-28T11:42:49.300Z,1017.23
2016-11-28T11:44:03.475Z,1017.18
2016-11-28T11:45:17.168Z,1017.29
2016-11-28T11:46:45.722Z,1017.14
2016-11-28T11:48:00.317Z,1017.19
2016-11-28T11:49:14.789Z,1017.11
2016-11-28T11:50:28.563Z,1017.33
2016-11-28T11:51:43.300Z,1017.1
2016-11-28T11:52:57.159Z,1017.12
2016-11-28T11:54:11.528Z,1017.08
2016-11-28T11:55:26.064Z,1017.14
2016-11-28T11:56:39.998Z,1017.09
2016-11-28T11:57:54.118Z,1017.17
2016-11-28T11:59:08.811Z,1017
2016-11-28T12:00:22.994Z,1017.2
2016-11-28T12:01:36.871Z,1017.02
2016-11-28T12:02:51.056Z,1017.02
2016-11-28T12:04:04.979Z,1016.95
2016-11-28T12:05:19.034Z,1017.05
2016-11-28T12:06:33.618Z,1017.25
2016-11-28T12:07:47.683Z,1017.17
2016-11-28T12:09:16.992Z,1017.19
2016-11-28T12:10:31.310Z,1017.17
2016-11-28T12:11:45.893Z,1017.23
2016-11-28T12:13:02.000Z,1017.14
2016-11-28T12:14:15.828Z,1016.98
2016-11-28T12:15:30.164Z,1017.04
2016-11-28T12:16:44.089Z,1017.08
2016-11-28T12:17:58.411Z,1017.05
2016-11-28T12:19:12.470Z,1017.06
2016-11-28T12:20:26.624Z,1017.09
2016-11-28T12:21:40.744Z,1017.03
2016-11-28T12:22:54.717Z,1017.02
2016-11-28T12:24:09.045Z,1016.97
2016-11-28T12:25:23.473Z,1016.94
2016-11-28T12:26:37.761Z,1016.94
2016-11-28T12:27:51.529Z,1017.03
2016-11-28T12:29:05.228Z,1016.93
2016-11-28T12:30:19.734Z,1016.95
2016-11-28T12:31:38.667Z,1017.11
2016-11-28T12:32:52.621Z,1017.12
2016-11-28T12:34:06.326Z,1017
2016-11-28T12:35:20.401Z,1017.08
2016-11-28T12:36:34.826Z,1017.12
2016-11-28T12:37:48.889Z,1017.12
2016-11-28T12:39:02.648Z,1016.98
2016-11-28T12:40:17.389Z,1017.04
2016-11-28T12:41:31.195Z,1017.01
2016-11-28T12:42:45.515Z,1017.22
2016-11-28T12:43:59.226Z,1017.05
2016-11-28T12:45:13.802Z,1017.05
2016-11-28T12:46:27.560Z,1017.11
2016-11-28T12:47:41.623Z,1017
2016-11-28T12:48:55.580Z,1017.14
2016-11-28T12:50:09.328Z,1016.98
2016-11-28T12:51:23.654Z,1017.15
2016-11-28T12:52:37.722Z,1017.22
2016-11-28T12:53:51.645Z,1017.03
2016-11-28T12:55:06.221Z,1017.09
2016-11-28T12:56:20.382Z,1017.17
2016-11-28T12:57:34.890Z,1017.08
2016-11-28T12:58:48.830Z,1017.21
2016-11-28T13:00:03.280Z,1017.16
2016-11-28T13:01:17.856Z,1017.27
2016-11-28T13:02:32.310Z,1017.2
2016-11-28T13:03:46.325Z,1017.13
2016-11-28T13:06:31.296Z,1017.11
2016-11-28T13:07:45.823Z,1017.12
2016-11-28T13:09:00.224Z,1017.12
2016-11-28T13:10:14.291Z,1017.22
2016-11-28T13:11:29.076Z,1017.09
2016-11-28T13:12:58.639Z,1017.31
2016-11-28T13:14:27.528Z,1017.11
2016-11-28T13:15:42.101Z,1017.1
2016-11-28T13:16:56.033Z,1017.16
2016-11-28T13:18:11.686Z,1017.22
2016-11-28T13:19:25.854Z,1017.11
2016-11-28T13:20:39.916Z,1017.06
2016-11-28T13:21:54.446Z,1017.09
2016-11-28T13:23:08.746Z,1017.18
2016-11-28T13:24:38.200Z,1017.26
2016-11-28T13:25:52.538Z,1017.49
2016-11-28T13:27:07.778Z,1017.11
2016-11-28T13:28:22.770Z,1017.18
2016-11-28T13:29:36.947Z,1017.16
2016-11-28T13:30:53.242Z,1017.13
2016-11-28T13:32:08.032Z,1017.15
2016-11-28T13:33:22.017Z,1017.22
2016-11-28T13:34:36.091Z,1017.33
2016-11-28T13:35:50.029Z,1017.3
2016-11-28T13:37:04.344Z,1017.22
2016-11-28T13:38:18.392Z,1017.27
2016-11-28T13:39:32.963Z,1017.43
2016-11-28T13:40:46.932Z,1017.13
2016-11-28T13:42:02.815Z,1017.12
2016-11-28T13:43:17.344Z,1017.09
2016-11-28T13:44:31.196Z,1017.22
2016-11-28T13:45:45.353Z,1017.14
2016-11-28T13:46:59.592Z,1017.31
2016-11-28T13:48:13.822Z,1017.32
2016-11-28T13:49:28.547Z,1017.15
2016-11-28T13:50:42.443Z,1017.32
2016-11-28T13:52:00.789Z,1017.35
2016-11-28T13:53:15.072Z,1017.22
2016-11-28T13:54:44.012Z,1017.3
2016-11-28T13:55:58.353Z,1017.32
2016-11-28T13:57:12.683Z,1017.31
2016-11-28T13:58:26.688Z,1017.27
2016-11-28T13:59:41.387Z,1017.27
2016-11-28T14:00:55.558Z,1017.18
2016-11-28T14:02:09.948Z,1017.16
2016-11-28T14:03:38.932Z,1017.15
2016-11-28T14:04:53.047Z,1017.32
2016-11-28T14:06:06.953Z,1017.3
2016-11-28T14:07:21.029Z,1017.26
2016-11-28T14:08:35.107Z,1017.47
2016-11-28T14:09:48.884Z,1017.49
2016-11-28T14:11:02.885Z,1017.75
2016-11-28T14:12:16.739Z,1017.62
2016-11-28T14:13:31.151Z,1017.52
2016-11-28T14:14:45.250Z,1017.39
2016-11-28T14:15:59.486Z,1017.59
2016-11-28T14:17:13.795Z,1017.65
2016-11-28T14:18:27.981Z,1017.47
2016-11-28T14:19:41.934Z,1017.55
2016-11-28T14:20:55.659Z,1017.59
2016-11-28T14:22:09.427Z,1017.48
2016-11-28T14:23:23.872Z,1017.5
2016-11-28T14:24:38.091Z,1017.58
2016-11-28T14:25:52.941Z,1017.53
2016-11-28T14:27:07.104Z,1017.5
2016-11-28T14:28:21.582Z,1017.66
2016-11-28T14:29:39.559Z,1017.67
2016-11-28T14:30:53.397Z,1017.69
2016-11-28T14:32:07.741Z,1017.76
2016-11-28T14:33:22.468Z,1017.71
2016-11-28T14:34:38.011Z,1017.88
2016-11-28T14:35:52.216Z,1017.55
2016-11-28T14:37:06.246Z,1017.63
2016-11-28T14:38:21.075Z,1017.67
2016-11-28T14:39:35.569Z,1017.61
2016-11-28T14:40:49.809Z,1017.67
2016-11-28T14:42:03.927Z,1017.82
2016-11-28T14:43:18.611Z,1017.59
2016-11-28T14:44:34.604Z,1017.65
2016-11-28T14:45:48.635Z,1017.7
2016-11-28T14:47:03.315Z,1017.66
2016-11-28T14:48:21.297Z,1017.64
2016-11-28T14:49:35.823Z,1017.74
2016-11-28T14:50:51.619Z,1017.67
2016-11-28T14:52:05.678Z,1017.57
2016-11-28T14:53:20.758Z,1017.85
2016-11-28T14:54:36.367Z,1017.78
2016-11-28T14:55:51.980Z,1017.79
2016-11-28T14:57:07.565Z,1017.71
2016-11-28T14:58:24.499Z,1017.7
2016-11-28T14:59:39.209Z,1017.63
2016-11-28T15:00:53.543Z,1017.88
2016-11-28T15:02:10.755Z,1017.82
2016-11-28T15:03:25.160Z,1017.79
2016-11-28T15:04:40.150Z,1017.85
2016-11-28T15:05:56.296Z,1017.81
2016-11-28T15:07:26.521Z,1017.88
2016-11-28T15:08:41.652Z,1017.98
2016-11-28T15:09:55.698Z,1017.82
2016-11-28T15:11:09.672Z,1017.81
2016-11-28T15:12:23.714Z,1017.83
2016-11-28T15:13:37.773Z,1017.84
2016-11-28T15:14:52.600Z,1017.78
2016-11-28T15:16:07.348Z,1017.92
2016-11-28T15:17:21.795Z,1017.76
2016-11-28T15:18:50.370Z,1017.96
2016-11-28T15:20:04.389Z,1017.93
2016-11-28T15:21:18.491Z,1017.92
2016-11-28T15:22:32.739Z,1018.05
2016-11-28T15:23:46.612Z,1017.92
2016-11-28T15:25:00.894Z,1018.03
2016-11-28T15:26:15.664Z,1018.02
2016-11-28T15:27:29.476Z,1017.94
2016-11-28T15:28:43.857Z,1017.91
2016-11-28T15:29:57.950Z,1018.06
2016-11-28T15:31:11.961Z,1018.05
2016-11-28T15:32:26.445Z,1017.84
2016-11-28T15:33:40.227Z,1017.81
2016-11-28T15:34:54.071Z,1017.93
2016-11-28T15:36:08.117Z,1017.98
2016-11-28T15:37:22.452Z,1017.92
2016-11-28T15:38:36.544Z,1017.92
2016-11-28T15:39:50.602Z,1017.97
2016-11-28T15:41:04.503Z,1017.93
2016-11-28T15:42:18.583Z,1018
2016-11-28T15:43:32.616Z,1017.96
2016-11-28T15:44:46.705Z,1018.05
2016-11-28T15:46:01.260Z,1018.13
2016-11-28T15:47:15.053Z,1018.13
2016-11-28T15:48:29.031Z,1018.13
2016-11-28T15:49:43.304Z,1018.14
2016-11-28T15:50:57.657Z,1018.28
2016-11-28T15:52:12.728Z,1018.2
2016-11-28T15:53:26.789Z,1018.26
2016-11-28T15:54:40.699Z,1018.26
2016-11-28T15:55:54.457Z,1018.45
2016-11-28T15:57:08.645Z,1018.37
2016-11-28T15:58:37.407Z,1018.34
2016-11-28T15:59:51.483Z,1018.5
2016-11-28T16:01:05.772Z,1018.44
2016-11-28T16:02:20.164Z,1018.41
2016-11-28T16:03:34.470Z,1018.37
2016-11-28T16:04:48.449Z,1018.42
2016-11-28T16:06:04.876Z,1018.47
2016-11-28T16:07:34.139Z,1018.54
2016-11-28T16:08:48.240Z,1018.57
2016-11-28T16:10:02.066Z,1018.46
2016-11-28T16:11:16.557Z,1018.57
2016-11-28T16:12:30.763Z,1018.52
2016-11-28T16:13:46.004Z,1018.7
2016-11-28T16:15:00.081Z,1018.64
2016-11-28T16:16:14.819Z,1018.55
2016-11-28T16:17:28.828Z,1018.57
2016-11-28T16:18:42.606Z,1018.5
2016-11-28T16:19:56.924Z,1018.54
2016-11-28T16:21:11.760Z,1018.57
2016-11-28T16:22:26.001Z,1018.53
2016-11-28T16:23:40.837Z,1018.53
2016-11-28T16:24:55.453Z,1018.56
2016-11-28T16:26:09.999Z,1018.62
2016-11-28T16:27:24.487Z,1018.58
2016-11-28T16:28:38.439Z,1018.71
2016-11-28T16:29:52.485Z,1018.63
2016-11-28T16:31:07.139Z,1018.63
2016-11-28T16:32:22.077Z,1018.74
2016-11-28T16:33:36.718Z,1018.71
2016-11-28T16:34:50.738Z,1018.71
2016-11-28T16:36:05.332Z,1018.73
2016-11-28T16:37:19.605Z,1018.76
2016-11-28T16:38:34.040Z,1018.75
2016-11-28T16:39:48.360Z,1018.76
2016-11-28T16:41:06.865Z,1018.74
2016-11-28T16:42:21.660Z,1018.79
2016-11-28T16:43:36.269Z,1018.77
2016-11-28T16:44:51.152Z,1018.74
2016-11-28T16:46:05.560Z,1018.76
2016-11-28T16:47:20.530Z,1018.77
2016-11-28T16:48:35.292Z,1018.77
2016-11-28T16:49:49.358Z,1018.82
2016-11-28T16:51:04.845Z,1018.89
2016-11-28T16:52:20.868Z,1018.86
2016-11-28T16:53:34.633Z,1018.88
2016-11-28T16:54:49.061Z,1018.81
2016-11-28T16:56:03.065Z,1018.85
2016-11-28T16:57:17.100Z,1018.92
2016-11-28T16:58:46.177Z,1018.87
2016-11-28T17:00:00.269Z,1018.92
2016-11-28T17:01:15.318Z,1018.86
2016-11-28T17:02:29.400Z,1018.87
2016-11-28T17:03:44.208Z,1018.87
2016-11-28T17:04:58.417Z,1018.9
2016-11-28T17:06:12.397Z,1019.01
2016-11-28T17:07:26.576Z,1018.97
2016-11-28T17:08:41.755Z,1019
2016-11-28T17:09:55.990Z,1019.12
2016-11-28T17:11:09.785Z,1019.07
2016-11-28T17:12:23.980Z,1019.14
2016-11-28T17:13:38.270Z,1019.18
2016-11-28T17:14:56.154Z,1019.19
2016-11-28T17:16:10.666Z,1019.16
2016-11-28T17:17:25.881Z,1019.18
2016-11-28T17:18:40.093Z,1019.11
2016-11-28T17:19:54.078Z,1019.13
2016-11-28T17:21:07.945Z,1019.17
2016-11-28T17:22:22.705Z,1019.16
2016-11-28T17:23:39.307Z,1019.25
2016-11-28T17:24:56.038Z,1019.26
2016-11-28T17:26:09.884Z,1019.26
2016-11-28T17:27:24.553Z,1019.24
2016-11-28T17:28:39.397Z,1019.24
2016-11-28T17:29:54.151Z,1019.28
2016-11-28T17:31:08.204Z,1019.21
2016-11-28T17:32:22.230Z,1019.22
2016-11-28T17:33:37.331Z,1019.26
2016-11-28T17:34:52.998Z,1019.26
2016-11-28T17:36:07.181Z,1019.28
2016-11-28T17:37:21.554Z,1019.25
2016-11-28T17:38:35.438Z,1019.28
2016-11-28T17:39:49.244Z,1019.26
2016-11-28T17:41:03.345Z,1019.25
2016-11-28T17:42:17.860Z,1019.32
2016-11-28T17:43:32.644Z,1019.25
2016-11-28T17:44:48.959Z,1019.33
2016-11-28T17:46:04.363Z,1019.31
2016-11-28T17:47:20.398Z,1019.37
2016-11-28T17:48:34.383Z,1019.29
2016-11-28T17:49:48.618Z,1019.35
2016-11-28T17:51:04.211Z,1019.37
2016-11-28T17:52:20.208Z,1019.41
2016-11-28T17:53:37.450Z,1019.41
2016-11-28T17:54:59.337Z,1019.44
2016-11-28T17:56:13.743Z,1019.44
2016-11-28T17:57:31.065Z,1019.44
2016-11-28T17:58:48.017Z,1019.46
2016-11-28T18:00:04.328Z,1019.46
2016-11-28T18:01:22.170Z,1019.47
2016-11-28T18:02:37.198Z,1019.47
2016-11-28T18:03:56.909Z,1019.51
2016-11-28T18:05:15.253Z,1019.46
2016-11-28T18:06:37.217Z,1019.48
2016-11-28T18:07:52.358Z,1019.48
2016-11-28T18:09:21.541Z,1019.49
2016-11-28T18:10:36.820Z,1019.5
2016-11-28T18:11:51.524Z,1019.54
2016-11-28T18:14:58.205Z,1019.55
2016-11-28T18:16:16.135Z,1019.57
2016-11-28T18:17:34.489Z,1019.61
2016-11-28T18:18:49.644Z,1019.66
2016-11-28T18:20:13.269Z,1019.71
2016-11-28T18:21:34.367Z,1019.65
2016-11-28T18:22:50.404Z,1019.63
2016-11-28T18:24:05.483Z,1019.7
2016-11-28T18:25:24.216Z,1019.7
2016-11-28T18:26:45.361Z,1019.66
2016-11-28T18:28:06.879Z,1019.65
2016-11-28T18:29:25.751Z,1019.62
2016-11-28T18:30:41.070Z,1019.65
2016-11-28T18:31:58.373Z,1019.69
2016-11-28T18:33:14.653Z,1019.7
2016-11-28T18:34:30.515Z,1019.69
2016-11-28T18:35:51.191Z,1019.65
2016-11-28T18:37:09.184Z,1019.69
2016-11-28T18:38:23.711Z,1019.72
2016-11-28T18:39:39.400Z,1019.74
2016-11-28T18:40:59.931Z,1019.76
2016-11-28T18:42:29.049Z,1019.77
2016-11-28T18:43:46.395Z,1019.81
2016-11-28T18:45:00.593Z,1019.85
2016-11-28T18:46:14.627Z,1019.89
2016-11-28T18:47:28.537Z,1019.88
2016-11-28T18:48:42.831Z,1019.89
2016-11-28T18:49:57.521Z,1019.92
2016-11-28T18:51:11.710Z,1019.99
2016-11-28T18:52:25.666Z,1019.99
2016-11-28T18:53:40.170Z,1019.98
2016-11-28T18:54:54.404Z,1020
2016-11-28T18:56:09.137Z,1019.96
2016-11-28T18:57:23.378Z,1019.91
2016-11-28T18:58:37.684Z,1019.92
2016-11-28T18:59:51.705Z,1019.96
2016-11-28T19:01:06.292Z,1019.98
2016-11-28T19:02:20.585Z,1020.04
2016-11-28T19:03:34.529Z,1020.01
2016-11-28T19:04:48.731Z,1020.12
2016-11-28T19:06:02.748Z,1020.09
2016-11-28T19:07:16.852Z,1020.08
2016-11-28T19:08:31.499Z,1020.18
2016-11-28T19:10:00.272Z,1020.05
2016-11-28T19:11:14.686Z,1020.1
2016-11-28T19:12:28.949Z,1020.08
2016-11-28T19:13:43.273Z,1020.03
2016-11-28T19:14:57.552Z,1020.05
2016-11-28T19:16:11.717Z,1020.12
2016-11-28T19:17:26.267Z,1020.17
2016-11-28T19:18:40.357Z,1020.19
2016-11-28T19:19:55.210Z,1020.17
2016-11-28T19:21:09.807Z,1020.24
2016-11-28T19:22:24.176Z,1020.18
2016-11-28T19:23:38.960Z,1020.2
2016-11-28T19:24:53.287Z,1020.21
2016-11-28T19:26:07.516Z,1020.17
2016-11-28T19:27:22.746Z,1020.22
2016-11-28T19:28:37.159Z,1020.18
2016-11-28T19:29:51.169Z,1020.2
2016-11-28T19:31:20.130Z,1020.27
2016-11-28T19:32:34.705Z,1020.26
2016-11-28T19:33:50.026Z,1020.26
2016-11-28T19:35:04.143Z,1020.28
2016-11-28T19:36:18.607Z,1020.29
2016-11-28T19:37:34.364Z,1020.26
2016-11-28T19:38:49.367Z,1020.34
2016-11-28T19:40:03.727Z,1020.36
2016-11-28T19:41:17.589Z,1020.36
2016-11-28T19:42:31.947Z,1020.42
2016-11-28T19:43:46.151Z,1020.4
2016-11-28T19:45:01.401Z,1020.47
2016-11-28T19:46:15.532Z,1020.47
2016-11-28T19:47:29.452Z,1020.45
2016-11-28T19:48:43.416Z,1020.47
2016-11-28T19:49:57.929Z,1020.5
2016-11-28T19:51:12.419Z,1020.49
2016-11-28T19:52:26.677Z,1020.49
2016-11-28T19:53:40.697Z,1020.53
2016-11-28T19:59:21.187Z,1020.55
2016-11-28T20:00:35.225Z,1020.55
2016-11-28T20:01:49.357Z,1020.62
2016-11-28T20:03:06.101Z,1020.66
2016-11-28T20:04:21.200Z,1020.61
2016-11-28T20:05:35.603Z,1020.61
2016-11-28T20:11:31.560Z,1020.59
2016-11-28T20:12:45.669Z,1020.63
2016-11-28T20:13:59.690Z,1020.62
2016-11-28T20:15:13.570Z,1020.69
2016-11-28T20:16:27.625Z,1020.65
2016-11-28T20:17:42.135Z,1020.64
2016-11-28T20:18:56.505Z,1020.64
2016-11-28T20:20:10.822Z,1020.56
2016-11-28T20:21:25.038Z,1020.54
2016-11-28T20:22:39.386Z,1020.57
2016-11-28T20:23:53.736Z,1020.58
2016-11-28T20:25:08.031Z,1020.61
2016-11-28T20:26:23.023Z,1020.63
2016-11-28T20:27:37.180Z,1020.59
2016-11-28T20:28:51.553Z,1020.65
2016-11-28T20:30:05.958Z,1020.67
2016-11-28T20:31:21.814Z,1020.66
2016-11-28T20:32:38.952Z,1020.67
2016-11-28T20:33:53.624Z,1020.62
2016-11-28T20:35:08.771Z,1020.63
2016-11-28T20:36:23.447Z,1020.65
2016-11-28T20:37:37.381Z,1020.65
2016-11-28T20:38:51.247Z,1020.7
2016-11-28T20:40:05.486Z,1020.73
2016-11-28T20:41:19.492Z,1020.77
2016-11-28T20:42:34.239Z,1020.76
2016-11-28T20:43:49.210Z,1020.83
2016-11-28T20:45:03.619Z,1020.83
2016-11-28T20:46:17.807Z,1020.83
2016-11-28T20:47:33.557Z,1020.82
2016-11-28T20:48:52.627Z,1020.85
2016-11-28T20:50:08.226Z,1020.82
2016-11-28T20:51:22.940Z,1020.8
2016-11-28T20:52:37.423Z,1020.81
2016-11-28T20:53:51.336Z,1020.78
2016-11-28T20:55:05.833Z,1020.84
2016-11-28T20:56:20.455Z,1020.83
2016-11-28T20:57:34.606Z,1020.9
2016-11-28T20:58:48.728Z,1020.83
2016-11-28T21:00:02.636Z,1020.86
2016-11-28T21:01:18.257Z,1020.89
2016-11-28T21:02:33.615Z,1020.89
2016-11-28T21:03:47.868Z,1020.9
2016-11-28T21:05:01.918Z,1020.9
2016-11-28T21:06:16.266Z,1020.88
2016-11-28T21:07:30.901Z,1020.87
2016-11-28T21:08:44.890Z,1020.92
2016-11-28T21:09:59.214Z,1020.88